sensor_id;sensor_type;location;lat;lon;timestamp;temperature;humidity
63277;DHT22;49403;51.046;13.780;2022-09-06T00:00:19;22.90;65.60
63277;DHT22;49403;51.046;13.780;2022-09-06T00:00:50;23.30;66.00
63277;DHT22;49403;51.046;13.780;2022-09-06T00:01:20;23.00;65.80
63277;DHT22;49403;51.046;13.780;2022-09-06T00:01:52;23.00;65.70
63277;DHT22;49403;51.046;13.780;2022-09-06T00:02:23;23.00;66.00
63277;DHT22;49403;51.046;13.780;2022-09-06T00:02:54;22.90;65.90
63277;DHT22;49403;51.046;13.780;2022-09-06T00:03:27;23.00;65.40
63277;DHT22;49403;51.046;13.780;2022-09-06T00:03:58;23.00;66.00
63277;DHT22;49403;51.046;13.780;2022-09-06T00:04:29;22.90;65.70
63277;DHT22;49403;51.046;13.780;2022-09-06T00:04:59;22.90;65.90
63277;DHT22;49403;51.046;13.780;2022-09-06T00:05:31;22.90;65.60
63277;DHT22;49403;51.046;13.780;2022-09-06T00:06:14;22.90;65.60
63277;DHT22;49403;51.046;13.780;2022-09-06T00:06:45;22.90;65.00
63277;DHT22;49403;51.046;13.780;2022-09-06T00:07:16;22.90;66.30
63277;DHT22;49403;51.046;13.780;2022-09-06T00:07:47;22.90;66.00
63277;DHT22;49403;51.046;13.780;2022-09-06T00:08:18;22.90;66.10
63277;DHT22;49403;51.046;13.780;2022-09-06T00:08:49;22.90;65.80
63277;DHT22;49403;51.046;13.780;2022-09-06T00:09:19;22.30;65.30
63277;DHT22;49403;51.046;13.780;2022-09-06T00:09:50;22.90;65.90
63277;DHT22;49403;51.046;13.780;2022-09-06T00:10:21;22.90;66.00
63277;DHT22;49403;51.046;13.780;2022-09-06T00:10:58;22.90;65.90
63277;DHT22;49403;51.046;13.780;2022-09-06T00:11:29;23.40;67.40
63277;DHT22;49403;51.046;13.780;2022-09-06T00:11:59;23.40;66.60
63277;DHT22;49403;51.046;13.780;2022-09-06T00:12:31;24.30;67.50
63277;DHT22;49403;51.046;13.780;2022-09-06T00:13:05;22.90;65.60
63277;DHT22;49403;51.046;13.780;2022-09-06T00:13:37;22.90;65.60
63277;DHT22;49403;51.046;13.780;2022-09-06T00:14:08;22.80;65.90
63277;DHT22;49403;51.046;13.780;2022-09-06T00:14:39;22.90;66.10
63277;DHT22;49403;51.046;13.780;2022-09-06T00:15:10;23.70;67.20
63277;DHT22;49403;51.046;13.780;2022-09-06T00:15:41;22.70;65.80
63277;DHT22;49403;51.046;13.780;2022-09-06T00:16:14;22.80;66.00
63277;DHT22;49403;51.046;13.780;2022-09-06T00:16:45;22.80;65.50
63277;DHT22;49403;51.046;13.780;2022-09-06T00:17:16;22.80;66.20
63277;DHT22;49403;51.046;13.780;2022-09-06T00:17:48;22.80;65.90
63277;DHT22;49403;51.046;13.780;2022-09-06T00:18:19;22.80;66.20
63277;DHT22;49403;51.046;13.780;2022-09-06T00:18:53;23.00;67.00
63277;DHT22;49403;51.046;13.780;2022-09-06T00:19:24;22.90;65.80
63277;DHT22;49403;51.046;13.780;2022-09-06T00:19:55;23.00;66.50
63277;DHT22;49403;51.046;13.780;2022-09-06T00:20:27;22.80;66.20
63277;DHT22;49403;51.046;13.780;2022-09-06T00:20:58;22.80;65.70
63277;DHT22;49403;51.046;13.780;2022-09-06T00:21:30;22.80;66.30
63277;DHT22;49403;51.046;13.780;2022-09-06T00:22:01;22.80;66.40
63277;DHT22;49403;51.046;13.780;2022-09-06T00:22:31;24.70;68.20
63277;DHT22;49403;51.046;13.780;2022-09-06T00:23:04;22.80;66.40
63277;DHT22;49403;51.046;13.780;2022-09-06T00:23:35;22.80;67.10
63277;DHT22;49403;51.046;13.780;2022-09-06T00:24:06;22.80;66.40
63277;DHT22;49403;51.046;13.780;2022-09-06T00:24:37;22.70;66.60
63277;DHT22;49403;51.046;13.780;2022-09-06T00:25:08;22.70;66.10
63277;DHT22;49403;51.046;13.780;2022-09-06T00:25:39;22.70;65.70
63277;DHT22;49403;51.046;13.780;2022-09-06T00:26:11;22.70;66.30
63277;DHT22;49403;51.046;13.780;2022-09-06T00:26:42;22.90;66.00
63277;DHT22;49403;51.046;13.780;2022-09-06T00:27:44;22.70;64.80
63277;DHT22;49403;51.046;13.780;2022-09-06T00:28:15;21.40;65.30
63277;DHT22;49403;51.046;13.780;2022-09-06T00:28:46;22.70;66.30
63277;DHT22;49403;51.046;13.780;2022-09-06T00:29:17;22.70;66.50
63277;DHT22;49403;51.046;13.780;2022-09-06T00:29:47;22.80;66.60
63277;DHT22;49403;51.046;13.780;2022-09-06T00:30:18;22.80;66.60
63277;DHT22;49403;51.046;13.780;2022-09-06T00:30:49;24.10;67.80
63277;DHT22;49403;51.046;13.780;2022-09-06T00:31:22;22.80;66.40
63277;DHT22;49403;51.046;13.780;2022-09-06T00:31:53;22.70;65.90
63277;DHT22;49403;51.046;13.780;2022-09-06T00:32:24;22.70;66.50
63277;DHT22;49403;51.046;13.780;2022-09-06T00:32:56;22.70;65.80
63277;DHT22;49403;51.046;13.780;2022-09-06T00:33:27;22.50;65.60
63277;DHT22;49403;51.046;13.780;2022-09-06T00:33:57;22.70;66.40
63277;DHT22;49403;51.046;13.780;2022-09-06T00:34:28;22.70;66.50
63277;DHT22;49403;51.046;13.780;2022-09-06T00:34:59;23.00;66.80
63277;DHT22;49403;51.046;13.780;2022-09-06T00:35:30;22.70;66.40
63277;DHT22;49403;51.046;13.780;2022-09-06T00:36:01;23.50;67.50
63277;DHT22;49403;51.046;13.780;2022-09-06T00:36:32;22.70;66.10
63277;DHT22;49403;51.046;13.780;2022-09-06T00:37:03;22.60;66.40
63277;DHT22;49403;51.046;13.780;2022-09-06T00:37:34;22.60;66.40
63277;DHT22;49403;51.046;13.780;2022-09-06T00:38:05;22.60;66.60
63277;DHT22;49403;51.046;13.780;2022-09-06T00:38:36;22.70;66.50
63277;DHT22;49403;51.046;13.780;2022-09-06T00:39:07;22.60;66.00
63277;DHT22;49403;51.046;13.780;2022-09-06T00:39:38;23.10;67.00
63277;DHT22;49403;51.046;13.780;2022-09-06T00:40:09;22.60;66.30
63277;DHT22;49403;51.046;13.780;2022-09-06T00:40:40;22.60;65.90
63277;DHT22;49403;51.046;13.780;2022-09-06T00:41:13;22.60;66.50
63277;DHT22;49403;51.046;13.780;2022-09-06T00:41:44;22.60;66.00
63277;DHT22;49403;51.046;13.780;2022-09-06T00:42:15;22.60;66.20
63277;DHT22;49403;51.046;13.780;2022-09-06T00:42:46;23.10;67.00
63277;DHT22;49403;51.046;13.780;2022-09-06T00:43:17;22.60;66.40
63277;DHT22;49403;51.046;13.780;2022-09-06T00:43:47;22.60;66.70
63277;DHT22;49403;51.046;13.780;2022-09-06T00:44:18;22.60;65.00
63277;DHT22;49403;51.046;13.780;2022-09-06T00:44:49;22.60;66.40
63277;DHT22;49403;51.046;13.780;2022-09-06T00:45:21;22.10;66.00
63277;DHT22;49403;51.046;13.780;2022-09-06T00:45:53;22.50;65.80
63277;DHT22;49403;51.046;13.780;2022-09-06T00:46:26;22.30;65.70
63277;DHT22;49403;51.046;13.780;2022-09-06T00:46:57;22.60;66.10
63277;DHT22;49403;51.046;13.780;2022-09-06T00:47:29;22.50;66.50
63277;DHT22;49403;51.046;13.780;2022-09-06T00:48:01;21.10;64.60
63277;DHT22;49403;51.046;13.780;2022-09-06T00:48:34;22.50;65.90
63277;DHT22;49403;51.046;13.780;2022-09-06T00:49:20;22.50;66.00
63277;DHT22;49403;51.046;13.780;2022-09-06T00:49:55;23.40;66.90
63277;DHT22;49403;51.046;13.780;2022-09-06T00:50:27;22.50;66.10
63277;DHT22;49403;51.046;13.780;2022-09-06T00:51:02;22.40;66.10
63277;DHT22;49403;51.046;13.780;2022-09-06T00:51:34;22.40;66.20
63277;DHT22;49403;51.046;13.780;2022-09-06T00:52:09;22.40;66.30
63277;DHT22;49403;51.046;13.780;2022-09-06T00:52:41;22.40;66.40
63277;DHT22;49403;51.046;13.780;2022-09-06T00:53:13;22.30;66.30
63277;DHT22;49403;51.046;13.780;2022-09-06T00:53:44;22.30;66.30
63277;DHT22;49403;51.046;13.780;2022-09-06T00:54:15;22.30;67.00
63277;DHT22;49403;51.046;13.780;2022-09-06T00:54:47;22.30;66.90
63277;DHT22;49403;51.046;13.780;2022-09-06T00:55:19;22.30;66.40
63277;DHT22;49403;51.046;13.780;2022-09-06T00:55:50;22.40;66.60
63277;DHT22;49403;51.046;13.780;2022-09-06T00:56:23;22.30;66.40
63277;DHT22;49403;51.046;13.780;2022-09-06T00:56:55;22.30;66.50
63277;DHT22;49403;51.046;13.780;2022-09-06T00:57:28;22.30;66.60
63277;DHT22;49403;51.046;13.780;2022-09-06T00:58:01;22.80;67.10
63277;DHT22;49403;51.046;13.780;2022-09-06T00:58:33;22.20;66.50
63277;DHT22;49403;51.046;13.780;2022-09-06T00:59:04;22.20;66.60
63277;DHT22;49403;51.046;13.780;2022-09-06T00:59:36;22.20;67.20
63277;DHT22;49403;51.046;13.780;2022-09-06T01:00:08;22.20;66.60
63277;DHT22;49403;51.046;13.780;2022-09-06T01:00:39;22.40;66.80
63277;DHT22;49403;51.046;13.780;2022-09-06T01:01:10;22.20;67.30
63277;DHT22;49403;51.046;13.780;2022-09-06T01:01:41;22.10;67.20
63277;DHT22;49403;51.046;13.780;2022-09-06T01:02:13;22.20;66.90
63277;DHT22;49403;51.046;13.780;2022-09-06T01:02:44;22.20;66.80
63277;DHT22;49403;51.046;13.780;2022-09-06T01:03:15;22.20;66.70
63277;DHT22;49403;51.046;13.780;2022-09-06T01:03:46;22.60;67.60
63277;DHT22;49403;51.046;13.780;2022-09-06T01:04:17;22.20;67.20
63277;DHT22;49403;51.046;13.780;2022-09-06T01:04:49;22.20;66.80
63277;DHT22;49403;51.046;13.780;2022-09-06T01:05:26;22.10;67.20
63277;DHT22;49403;51.046;13.780;2022-09-06T01:07:04;22.10;67.40
63277;DHT22;49403;51.046;13.780;2022-09-06T01:10:22;21.80;67.00
63277;DHT22;49403;51.046;13.780;2022-09-06T01:11:17;21.70;67.30
63277;DHT22;49403;51.046;13.780;2022-09-06T01:12:53;21.50;67.20
63277;DHT22;49403;51.046;13.780;2022-09-06T01:13:48;21.50;68.00
63277;DHT22;49403;51.046;13.780;2022-09-06T01:16:34;21.40;68.50
63277;DHT22;49403;51.046;13.780;2022-09-06T01:18:18;21.30;68.60
63277;DHT22;49403;51.046;13.780;2022-09-06T01:20:09;20.90;68.50
63277;DHT22;49403;51.046;13.780;2022-09-06T01:21:16;21.20;68.80
63277;DHT22;49403;51.046;13.780;2022-09-06T01:22:44;21.20;69.10
63277;DHT22;49403;51.046;13.780;2022-09-06T01:24:52;21.20;69.10
63277;DHT22;49403;51.046;13.780;2022-09-06T01:29:26;21.20;69.20
63277;DHT22;49403;51.046;13.780;2022-09-06T01:30:05;21.20;69.00
63277;DHT22;49403;51.046;13.780;2022-09-06T01:30:40;23.00;71.10
63277;DHT22;49403;51.046;13.780;2022-09-06T01:31:46;21.20;69.20
63277;DHT22;49403;51.046;13.780;2022-09-06T01:33:23;22.10;70.50
63277;DHT22;49403;51.046;13.780;2022-09-06T01:34:43;21.10;68.60
63277;DHT22;49403;51.046;13.780;2022-09-06T01:35:29;21.90;70.00
63277;DHT22;49403;51.046;13.780;2022-09-06T01:36:06;21.30;69.10
63277;DHT22;49403;51.046;13.780;2022-09-06T01:37:00;21.20;69.10
63277;DHT22;49403;51.046;13.780;2022-09-06T01:37:32;23.10;70.80
63277;DHT22;49403;51.046;13.780;2022-09-06T01:38:04;21.20;69.60
63277;DHT22;49403;51.046;13.780;2022-09-06T01:38:35;21.30;69.40
63277;DHT22;49403;51.046;13.780;2022-09-06T01:39:07;21.20;69.80
63277;DHT22;49403;51.046;13.780;2022-09-06T01:39:39;21.30;69.40
63277;DHT22;49403;51.046;13.780;2022-09-06T01:40:11;21.00;69.00
63277;DHT22;49403;51.046;13.780;2022-09-06T01:40:41;21.30;69.60
63277;DHT22;49403;51.046;13.780;2022-09-06T01:41:12;21.30;69.50
63277;DHT22;49403;51.046;13.780;2022-09-06T01:41:43;21.10;69.40
63277;DHT22;49403;51.046;13.780;2022-09-06T01:42:20;21.50;69.60
63277;DHT22;49403;51.046;13.780;2022-09-06T01:42:52;21.40;69.10
63277;DHT22;49403;51.046;13.780;2022-09-06T01:43:34;21.40;69.00
63277;DHT22;49403;51.046;13.780;2022-09-06T01:44:06;21.40;68.90
63277;DHT22;49403;51.046;13.780;2022-09-06T01:44:40;21.40;69.40
63277;DHT22;49403;51.046;13.780;2022-09-06T01:45:15;21.40;68.90
63277;DHT22;49403;51.046;13.780;2022-09-06T01:46:00;21.40;68.80
63277;DHT22;49403;51.046;13.780;2022-09-06T01:49:47;21.40;68.50
63277;DHT22;49403;51.046;13.780;2022-09-06T01:51:36;22.10;69.20
63277;DHT22;49403;51.046;13.780;2022-09-06T01:52:19;21.30;68.40
63277;DHT22;49403;51.046;13.780;2022-09-06T01:56:58;23.10;70.30
63277;DHT22;49403;51.046;13.780;2022-09-06T02:00:16;21.10;68.10
63277;DHT22;49403;51.046;13.780;2022-09-06T02:00:59;21.60;68.90
63277;DHT22;49403;51.046;13.780;2022-09-06T02:01:36;21.30;68.60
63277;DHT22;49403;51.046;13.780;2022-09-06T02:03:06;21.20;68.50
63277;DHT22;49403;51.046;13.780;2022-09-06T02:05:40;21.00;69.60
63277;DHT22;49403;51.046;13.780;2022-09-06T02:06:17;22.60;70.60
63277;DHT22;49403;51.046;13.780;2022-09-06T02:06:58;20.80;69.30
63277;DHT22;49403;51.046;13.780;2022-09-06T02:07:32;21.70;70.40
63277;DHT22;49403;51.046;13.780;2022-09-06T02:08:09;22.60;71.40
63277;DHT22;49403;51.046;13.780;2022-09-06T02:08:45;20.90;69.70
63277;DHT22;49403;51.046;13.780;2022-09-06T02:09:21;20.90;69.70
63277;DHT22;49403;51.046;13.780;2022-09-06T02:10:00;20.90;69.80
63277;DHT22;49403;51.046;13.780;2022-09-06T02:10:56;20.90;69.50
63277;DHT22;49403;51.046;13.780;2022-09-06T02:11:30;19.90;69.60
63277;DHT22;49403;51.046;13.780;2022-09-06T02:12:05;20.80;69.90
63277;DHT22;49403;51.046;13.780;2022-09-06T02:12:39;20.90;70.10
63277;DHT22;49403;51.046;13.780;2022-09-06T02:13:13;20.90;70.10
63277;DHT22;49403;51.046;13.780;2022-09-06T02:13:51;22.10;71.30
63277;DHT22;49403;51.046;13.780;2022-09-06T02:14:37;20.90;70.10
63277;DHT22;49403;51.046;13.780;2022-09-06T02:15:13;22.40;71.50
63277;DHT22;49403;51.046;13.780;2022-09-06T02:15:50;19.20;68.40
63277;DHT22;49403;51.046;13.780;2022-09-06T02:16:25;21.60;70.80
63277;DHT22;49403;51.046;13.780;2022-09-06T02:16:58;21.80;71.10
63277;DHT22;49403;51.046;13.780;2022-09-06T02:17:33;20.90;71.00
63277;DHT22;49403;51.046;13.780;2022-09-06T02:18:20;21.00;70.20
63277;DHT22;49403;51.046;13.780;2022-09-06T02:19:05;21.90;71.00
63277;DHT22;49403;51.046;13.780;2022-09-06T02:19:46;20.90;69.80
63277;DHT22;49403;51.046;13.780;2022-09-06T02:20:24;20.90;69.70
63277;DHT22;49403;51.046;13.780;2022-09-06T02:20:56;20.90;69.90
63277;DHT22;49403;51.046;13.780;2022-09-06T02:21:32;22.40;71.60
63277;DHT22;49403;51.046;13.780;2022-09-06T02:22:07;21.00;69.90
63277;DHT22;49403;51.046;13.780;2022-09-06T02:22:42;22.50;71.90
63277;DHT22;49403;51.046;13.780;2022-09-06T02:23:15;20.90;69.40
63277;DHT22;49403;51.046;13.780;2022-09-06T02:23:48;22.60;70.90
63277;DHT22;49403;51.046;13.780;2022-09-06T02:24:24;21.00;69.30
63277;DHT22;49403;51.046;13.780;2022-09-06T02:24:58;21.00;69.10
63277;DHT22;49403;51.046;13.780;2022-09-06T02:25:43;21.50;69.60
63277;DHT22;49403;51.046;13.780;2022-09-06T02:26:19;21.10;69.00
63277;DHT22;49403;51.046;13.780;2022-09-06T02:26:51;21.00;69.00
63277;DHT22;49403;51.046;13.780;2022-09-06T02:27:22;21.00;69.70
63277;DHT22;49403;51.046;13.780;2022-09-06T02:27:54;20.70;69.20
63277;DHT22;49403;51.046;13.780;2022-09-06T02:28:25;21.10;69.00
63277;DHT22;49403;51.046;13.780;2022-09-06T02:28:56;21.10;69.40
63277;DHT22;49403;51.046;13.780;2022-09-06T02:29:27;21.50;69.30
63277;DHT22;49403;51.046;13.780;2022-09-06T02:29:58;21.20;69.00
63277;DHT22;49403;51.046;13.780;2022-09-06T02:30:37;22.20;70.50
63277;DHT22;49403;51.046;13.780;2022-09-06T02:31:15;21.20;68.90
63277;DHT22;49403;51.046;13.780;2022-09-06T02:32:28;21.20;68.90
63277;DHT22;49403;51.046;13.780;2022-09-06T02:33:02;21.20;68.90
63277;DHT22;49403;51.046;13.780;2022-09-06T02:33:34;21.10;68.90
63277;DHT22;49403;51.046;13.780;2022-09-06T02:34:06;21.10;68.90
63277;DHT22;49403;51.046;13.780;2022-09-06T02:34:37;20.90;68.90
63277;DHT22;49403;51.046;13.780;2022-09-06T02:35:14;21.10;69.00
63277;DHT22;49403;51.046;13.780;2022-09-06T02:35:51;23.10;70.90
63277;DHT22;49403;51.046;13.780;2022-09-06T02:36:22;20.60;68.40
63277;DHT22;49403;51.046;13.780;2022-09-06T02:36:54;21.20;68.90
63277;DHT22;49403;51.046;13.780;2022-09-06T02:37:25;21.20;69.40
63277;DHT22;49403;51.046;13.780;2022-09-06T02:37:56;21.20;68.70
63277;DHT22;49403;51.046;13.780;2022-09-06T02:38:27;21.20;69.00
63277;DHT22;49403;51.046;13.780;2022-09-06T02:38:59;21.30;68.60
63277;DHT22;49403;51.046;13.780;2022-09-06T02:39:31;21.30;69.20
63277;DHT22;49403;51.046;13.780;2022-09-06T02:40:02;21.30;69.40
63277;DHT22;49403;51.046;13.780;2022-09-06T02:40:33;21.30;68.50
63277;DHT22;49403;51.046;13.780;2022-09-06T02:41:05;23.50;70.60
63277;DHT22;49403;51.046;13.780;2022-09-06T02:41:37;22.00;69.20
63277;DHT22;49403;51.046;13.780;2022-09-06T02:42:11;21.40;68.50
63277;DHT22;49403;51.046;13.780;2022-09-06T02:42:43;21.60;68.60
63277;DHT22;49403;51.046;13.780;2022-09-06T02:43:14;21.40;68.80
63277;DHT22;49403;51.046;13.780;2022-09-06T02:43:44;21.70;69.10
63277;DHT22;49403;51.046;13.780;2022-09-06T02:44:15;21.30;68.60
63277;DHT22;49403;51.046;13.780;2022-09-06T02:44:46;21.50;68.50
63277;DHT22;49403;51.046;13.780;2022-09-06T02:45:17;21.40;68.50
63277;DHT22;49403;51.046;13.780;2022-09-06T02:45:48;22.00;69.00
63277;DHT22;49403;51.046;13.780;2022-09-06T02:46:19;21.50;68.50
63277;DHT22;49403;51.046;13.780;2022-09-06T02:46:50;21.70;68.60
63277;DHT22;49403;51.046;13.780;2022-09-06T02:47:21;21.50;68.20
63277;DHT22;49403;51.046;13.780;2022-09-06T02:47:52;21.60;68.50
63277;DHT22;49403;51.046;13.780;2022-09-06T02:48:23;21.60;68.50
63277;DHT22;49403;51.046;13.780;2022-09-06T02:48:54;21.60;68.40
63277;DHT22;49403;51.046;13.780;2022-09-06T02:49:56;21.60;66.70
63277;DHT22;49403;51.046;13.780;2022-09-06T02:50:26;21.50;68.20
63277;DHT22;49403;51.046;13.780;2022-09-06T02:51:01;21.60;68.00
63277;DHT22;49403;51.046;13.780;2022-09-06T02:51:36;21.60;67.40
63277;DHT22;49403;51.046;13.780;2022-09-06T02:52:08;21.70;67.80
63277;DHT22;49403;51.046;13.780;2022-09-06T02:52:39;21.70;68.00
63277;DHT22;49403;51.046;13.780;2022-09-06T02:53:13;21.60;68.00
63277;DHT22;49403;51.046;13.780;2022-09-06T02:53:44;21.60;67.60
63277;DHT22;49403;51.046;13.780;2022-09-06T02:54:15;21.60;67.40
63277;DHT22;49403;51.046;13.780;2022-09-06T02:54:46;22.00;68.40
63277;DHT22;49403;51.046;13.780;2022-09-06T02:55:17;22.40;68.60
63277;DHT22;49403;51.046;13.780;2022-09-06T02:55:48;21.50;68.00
63277;DHT22;49403;51.046;13.780;2022-09-06T02:56:19;21.40;67.90
63277;DHT22;49403;51.046;13.780;2022-09-06T02:56:50;21.50;68.10
63277;DHT22;49403;51.046;13.780;2022-09-06T02:57:21;21.50;68.10
63277;DHT22;49403;51.046;13.780;2022-09-06T02:57:52;22.20;68.80
63277;DHT22;49403;51.046;13.780;2022-09-06T02:58:23;21.50;68.20
63277;DHT22;49403;51.046;13.780;2022-09-06T02:58:54;21.50;68.40
63277;DHT22;49403;51.046;13.780;2022-09-06T02:59:25;20.70;67.70
63277;DHT22;49403;51.046;13.780;2022-09-06T02:59:56;21.50;68.40
63277;DHT22;49403;51.046;13.780;2022-09-06T03:00:27;23.30;70.50
63277;DHT22;49403;51.046;13.780;2022-09-06T03:00:58;21.40;68.20
63277;DHT22;49403;51.046;13.780;2022-09-06T03:01:30;22.70;69.70
63277;DHT22;49403;51.046;13.780;2022-09-06T03:02:00;21.40;68.70
63277;DHT22;49403;51.046;13.780;2022-09-06T03:02:31;21.40;68.60
63277;DHT22;49403;51.046;13.780;2022-09-06T03:03:03;21.40;68.40
63277;DHT22;49403;51.046;13.780;2022-09-06T03:03:34;21.50;67.90
63277;DHT22;49403;51.046;13.780;2022-09-06T03:04:05;22.50;69.70
63277;DHT22;49403;51.046;13.780;2022-09-06T03:04:36;21.50;68.50
63277;DHT22;49403;51.046;13.780;2022-09-06T03:05:07;21.50;68.20
63277;DHT22;49403;51.046;13.780;2022-09-06T03:05:38;23.40;69.70
63277;DHT22;49403;51.046;13.780;2022-09-06T03:06:09;21.50;68.20
63277;DHT22;49403;51.046;13.780;2022-09-06T03:06:40;21.60;68.40
63277;DHT22;49403;51.046;13.780;2022-09-06T03:07:11;21.70;68.40
63277;DHT22;49403;51.046;13.780;2022-09-06T03:07:41;21.30;67.90
63277;DHT22;49403;51.046;13.780;2022-09-06T03:08:12;23.00;69.90
63277;DHT22;49403;51.046;13.780;2022-09-06T03:08:43;21.50;68.20
63277;DHT22;49403;51.046;13.780;2022-09-06T03:09:14;21.50;68.00
63277;DHT22;49403;51.046;13.780;2022-09-06T03:09:45;21.50;67.90
63277;DHT22;49403;51.046;13.780;2022-09-06T03:10:17;21.50;68.60
63277;DHT22;49403;51.046;13.780;2022-09-06T03:10:52;22.00;68.00
63277;DHT22;49403;51.046;13.780;2022-09-06T03:11:24;22.80;68.80
63277;DHT22;49403;51.046;13.780;2022-09-06T03:11:54;21.50;68.00
63277;DHT22;49403;51.046;13.780;2022-09-06T03:12:25;23.50;69.90
63277;DHT22;49403;51.046;13.780;2022-09-06T03:12:56;21.50;68.00
63277;DHT22;49403;51.046;13.780;2022-09-06T03:13:28;21.50;68.00
63277;DHT22;49403;51.046;13.780;2022-09-06T03:13:59;22.10;68.10
63277;DHT22;49403;51.046;13.780;2022-09-06T03:14:30;21.50;68.30
63277;DHT22;49403;51.046;13.780;2022-09-06T03:15:01;21.50;68.00
63277;DHT22;49403;51.046;13.780;2022-09-06T03:15:32;22.10;68.50
63277;DHT22;49403;51.046;13.780;2022-09-06T03:16:03;21.80;68.40
63277;DHT22;49403;51.046;13.780;2022-09-06T03:16:33;21.40;68.10
63277;DHT22;49403;51.046;13.780;2022-09-06T03:17:04;22.90;70.10
63277;DHT22;49403;51.046;13.780;2022-09-06T03:17:35;21.40;68.90
63277;DHT22;49403;51.046;13.780;2022-09-06T03:18:06;21.40;68.40
63277;DHT22;49403;51.046;13.780;2022-09-06T03:18:37;21.40;68.20
63277;DHT22;49403;51.046;13.780;2022-09-06T03:19:08;21.30;67.80
63277;DHT22;49403;51.046;13.780;2022-09-06T03:19:39;21.30;68.40
63277;DHT22;49403;51.046;13.780;2022-09-06T03:20:11;21.30;68.20
63277;DHT22;49403;51.046;13.780;2022-09-06T03:20:42;22.60;69.20
63277;DHT22;49403;51.046;13.780;2022-09-06T03:21:13;21.30;68.60
63277;DHT22;49403;51.046;13.780;2022-09-06T03:21:45;21.30;68.40
63277;DHT22;49403;51.046;13.780;2022-09-06T03:22:16;21.20;68.50
63277;DHT22;49403;51.046;13.780;2022-09-06T03:22:46;21.20;68.50
63277;DHT22;49403;51.046;13.780;2022-09-06T03:23:20;21.20;68.40
63277;DHT22;49403;51.046;13.780;2022-09-06T03:23:51;21.20;68.20
63277;DHT22;49403;51.046;13.780;2022-09-06T03:24:22;21.20;68.70
63277;DHT22;49403;51.046;13.780;2022-09-06T03:24:53;21.10;68.90
63277;DHT22;49403;51.046;13.780;2022-09-06T03:25:23;21.50;69.20
63277;DHT22;49403;51.046;13.780;2022-09-06T03:25:55;21.10;68.60
63277;DHT22;49403;51.046;13.780;2022-09-06T03:26:26;21.10;68.40
63277;DHT22;49403;51.046;13.780;2022-09-06T03:26:59;21.10;69.10
63277;DHT22;49403;51.046;13.780;2022-09-06T03:27:31;21.10;69.10
63277;DHT22;49403;51.046;13.780;2022-09-06T03:28:02;21.00;69.00
63277;DHT22;49403;51.046;13.780;2022-09-06T03:28:33;21.10;69.10
63277;DHT22;49403;51.046;13.780;2022-09-06T03:29:04;22.40;70.00
63277;DHT22;49403;51.046;13.780;2022-09-06T03:29:35;21.10;69.30
63277;DHT22;49403;51.046;13.780;2022-09-06T03:30:07;21.10;69.10
63277;DHT22;49403;51.046;13.780;2022-09-06T03:30:38;21.10;68.60
63277;DHT22;49403;51.046;13.780;2022-09-06T03:31:09;21.10;68.60
63277;DHT22;49403;51.046;13.780;2022-09-06T03:31:40;21.10;68.50
63277;DHT22;49403;51.046;13.780;2022-09-06T03:32:11;21.10;69.00
63277;DHT22;49403;51.046;13.780;2022-09-06T03:32:42;21.00;69.10
63277;DHT22;49403;51.046;13.780;2022-09-06T03:33:13;21.30;69.10
63277;DHT22;49403;51.046;13.780;2022-09-06T03:33:44;21.60;69.10
63277;DHT22;49403;51.046;13.780;2022-09-06T03:34:15;21.30;69.20
63277;DHT22;49403;51.046;13.780;2022-09-06T03:34:46;21.80;69.70
63277;DHT22;49403;51.046;13.780;2022-09-06T03:35:17;21.10;68.80
63277;DHT22;49403;51.046;13.780;2022-09-06T03:35:52;21.20;68.80
63277;DHT22;49403;51.046;13.780;2022-09-06T03:36:23;19.20;66.40
63277;DHT22;49403;51.046;13.780;2022-09-06T03:36:54;21.10;68.80
63277;DHT22;49403;51.046;13.780;2022-09-06T03:37:25;21.20;69.10
63277;DHT22;49403;51.046;13.780;2022-09-06T03:37:56;21.10;68.60
63277;DHT22;49403;51.046;13.780;2022-09-06T03:38:28;21.10;68.70
63277;DHT22;49403;51.046;13.780;2022-09-06T03:38:59;21.10;68.20
63277;DHT22;49403;51.046;13.780;2022-09-06T03:39:30;21.20;68.90
63277;DHT22;49403;51.046;13.780;2022-09-06T03:40:03;21.20;68.50
63277;DHT22;49403;51.046;13.780;2022-09-06T03:40:35;20.90;67.90
63277;DHT22;49403;51.046;13.780;2022-09-06T03:41:06;23.10;70.50
63277;DHT22;49403;51.046;13.780;2022-09-06T03:41:37;21.10;68.60
63277;DHT22;49403;51.046;13.780;2022-09-06T03:42:08;21.20;68.70
63277;DHT22;49403;51.046;13.780;2022-09-06T03:42:39;21.20;68.60
63277;DHT22;49403;51.046;13.780;2022-09-06T03:43:09;21.20;68.50
63277;DHT22;49403;51.046;13.780;2022-09-06T03:43:40;21.20;68.50
63277;DHT22;49403;51.046;13.780;2022-09-06T03:44:11;22.10;69.60
63277;DHT22;49403;51.046;13.780;2022-09-06T03:44:42;21.20;68.50
63277;DHT22;49403;51.046;13.780;2022-09-06T03:45:13;21.20;68.50
63277;DHT22;49403;51.046;13.780;2022-09-06T03:45:45;22.10;69.60
63277;DHT22;49403;51.046;13.780;2022-09-06T03:46:16;21.20;68.10
63277;DHT22;49403;51.046;13.780;2022-09-06T03:46:47;21.20;68.60
63277;DHT22;49403;51.046;13.780;2022-09-06T03:47:19;21.20;68.50
63277;DHT22;49403;51.046;13.780;2022-09-06T03:47:50;21.10;68.00
63277;DHT22;49403;51.046;13.780;2022-09-06T03:48:22;21.20;68.70
63277;DHT22;49403;51.046;13.780;2022-09-06T03:48:53;21.20;68.00
63277;DHT22;49403;51.046;13.780;2022-09-06T03:49:24;21.10;68.40
63277;DHT22;49403;51.046;13.780;2022-09-06T03:49:55;21.10;68.60
63277;DHT22;49403;51.046;13.780;2022-09-06T03:50:26;21.10;68.50
63277;DHT22;49403;51.046;13.780;2022-09-06T03:50:57;21.10;68.70
63277;DHT22;49403;51.046;13.780;2022-09-06T03:51:28;22.10;69.10
63277;DHT22;49403;51.046;13.780;2022-09-06T03:51:59;21.10;68.50
63277;DHT22;49403;51.046;13.780;2022-09-06T03:52:30;21.50;68.60
63277;DHT22;49403;51.046;13.780;2022-09-06T03:53:01;21.10;68.20
63277;DHT22;49403;51.046;13.780;2022-09-06T03:53:32;21.10;68.60
63277;DHT22;49403;51.046;13.780;2022-09-06T03:54:03;21.10;68.60
63277;DHT22;49403;51.046;13.780;2022-09-06T03:54:34;21.10;68.50
63277;DHT22;49403;51.046;13.780;2022-09-06T03:55:06;21.10;68.70
63277;DHT22;49403;51.046;13.780;2022-09-06T03:55:37;21.10;68.20
63277;DHT22;49403;51.046;13.780;2022-09-06T03:56:08;21.10;69.20
63277;DHT22;49403;51.046;13.780;2022-09-06T03:56:39;20.80;68.50
63277;DHT22;49403;51.046;13.780;2022-09-06T03:57:10;21.10;69.10
63277;DHT22;49403;51.046;13.780;2022-09-06T03:57:41;21.20;68.80